^^
Datos históricos de la estación: Murcia-Puente Tocinos
Diario Informe para Diciembre 06, 2021 Unidades:  Ingés    Métrico   Ambas
Diario Semanal Mensual Anual
  Máxima: Mínima: Promedio:
Temperatura: 65.8 °F 51.3 °F 58.1 °F
Punto de rocio: 40.6 °F 34.3 °F 36.7 °F
Humedad: 65% 33% 46%
Velocidad viento: 14.5mph 2mph 6.1mph
Racha viento: 25.6mph - -
Viento- - SO
Presión: 30.2 in 30.1 in -
Precipitación: 0 in    
 
 
Tabla de datos para Diciembre 06, 2021
Hora Temperatura Punto de rocio Presión Viento Velocidad viento Racha viento Humedad Intensidad lluvia(por hora) Nubes
00:04 53.8 °F 40.3 °F 30.2 in SE 2 mph 5.4 mph 60% 0 in
00:09 53.4 °F 40.5 °F 30.2 in SE 2.2 mph 5.9 mph 61.1% 0 in
00:14 53.1 °F 40.6 °F 30.2 in SSE 2.9 mph 6.9 mph 62.5% 0 in
00:19 52.9 °F 40.6 °F 30.2 in Sur 3.2 mph 6.9 mph 63% 0 in
00:24 52.7 °F 40.6 °F 30.2 in SSO 4.3 mph 8.1 mph 63.4% 0 in
00:29 52.5 °F 40.6 °F 30.2 in SSO 4.5 mph 6.9 mph 64% 0 in
00:34 52.5 °F 40.5 °F 30.2 in SO 5.2 mph 9.2 mph 63.6% 0 in
00:39 52.9 °F 40.5 °F 30.2 in OSO 5.5 mph 11.8 mph 62.8% 0 in
00:44 53.1 °F 40.3 °F 30.1 in SO 6.4 mph 13.8 mph 62% 0 in
00:49 53.1 °F 40.5 °F 30.1 in SO 6.8 mph 12.7 mph 62% 0 in
00:54 53.1 °F 40.5 °F 30.1 in OSO 8.1 mph 12.7 mph 62% 0 in
00:59 53.1 °F 40.1 °F 30.1 in ONO 7.3 mph 10.4 mph 61.1% 0 in
01:04 53.2 °F 39.9 °F 30.1 in North 5.4 mph 8.1 mph 60.5% 0 in
01:09 53.2 °F 39.9 °F 30.2 in NE 4.8 mph 6.9 mph 60.2% 0 in
01:14 52.9 °F 39.9 °F 30.2 in ESE 3.1 mph 5.2 mph 61.5% 0 in
01:19 52 °F 39.9 °F 30.2 in ESE 3.1 mph 4.6 mph 63.5% 0 in
01:24 51.4 °F 40.1 °F 30.2 in SSE 3.1 mph 6.2 mph 65% 0 in
01:29 51.4 °F 39.9 °F 30.2 in Oeste 3.2 mph 8.5 mph 64.6% 0 in
01:34 52 °F 39.6 °F 30.2 in OSO 3.6 mph 9.2 mph 62.7% 0 in
01:39 52.3 °F 39.4 °F 30.2 in Oeste 4.1 mph 10.4 mph 61.5% 0 in
01:44 52.7 °F 39.4 °F 30.1 in ONO 5.4 mph 11.5 mph 60.1% 0 in
01:49 53.2 °F 39.2 °F 30.1 in Oeste 5.2 mph 8.1 mph 59% 0 in
01:54 53.2 °F 39 °F 30.2 in SSO 4.7 mph 3.5 mph 58.6% 0 in
01:59 53.2 °F 39.2 °F 30.2 in SSO 4 mph 5.9 mph 58.7% 0 in
02:04 53.1 °F 39.2 °F 30.2 in Sur 2.4 mph 6.2 mph 59.5% 0 in
02:09 52.5 °F 39.2 °F 30.2 in SSE 2.7 mph 5.4 mph 60.4% 0 in
02:14 52.2 °F 39.4 °F 30.2 in Sur 3.6 mph 5.9 mph 61.4% 0 in
02:19 52 °F 39.4 °F 30.2 in Sur 3.7 mph 7.4 mph 62% 0 in
02:24 52.2 °F 39.4 °F 30.2 in Sur 4 mph 9.2 mph 61.6% 0 in
02:29 52.7 °F 39.4 °F 30.2 in Sur 4.3 mph 8.1 mph 60.1% 0 in
02:34 52.7 °F 39.2 °F 30.2 in Sur 5.2 mph 8.1 mph 60% 0 in
02:39 52.5 °F 39 °F 30.2 in SSE 5.4 mph 10.7 mph 60% 0 in
02:44 52.7 °F 39.2 °F 30.2 in Sur 5.9 mph 10 mph 60% 0 in
02:49 52.9 °F 39 °F 30.2 in SSO 5.8 mph 11.8 mph 59.4% 0 in
02:54 53.1 °F 39 °F 30.2 in OSO 5.4 mph 5.8 mph 58.7% 0 in
02:59 53.1 °F 38.8 °F 30.2 in Sur 4.7 mph 5.2 mph 58.7% 0 in
03:04 52.9 °F 38.8 °F 30.2 in ONO 3.1 mph 6.9 mph 58.8% 0 in
03:09 53.1 °F 38.7 °F 30.2 in SSO 3 mph 5.8 mph 58% 0 in
03:14 53.1 °F 38.7 °F 30.2 in NE 2.9 mph 4.6 mph 58% 0 in
03:19 53.1 °F 38.5 °F 30.2 in Sur 2.7 mph 4.7 mph 57.6% 0 in
03:24 52.9 °F 38.5 °F 30.2 in ENE 2 mph 5.9 mph 58% 0 in
03:29 52.3 °F 38.3 °F 30.2 in Este 2.4 mph 5.9 mph 58.8% 0 in
03:34 51.8 °F 38.3 °F 30.2 in Este 3.6 mph 5.8 mph 59.8% 0 in
03:39 51.4 °F 38.3 °F 30.2 in Este 3.5 mph 4.7 mph 60.8% 0 in
03:44 51.3 °F 38.3 °F 30.2 in SE 3.1 mph 5.2 mph 61% 0 in
03:49 51.6 °F 38.3 °F 30.2 in SSE 3.2 mph 5.2 mph 60.4% 0 in
03:54 52.3 °F 38.3 °F 30.2 in SE 3.6 mph 5.9 mph 58.5% 0 in
03:59 53.1 °F 38.3 °F 30.2 in ESE 3.8 mph 7.4 mph 57% 0 in
04:04 53.2 °F 37.9 °F 30.2 in ESE 4.3 mph 8.5 mph 56.2% 0 in
04:09 53.4 °F 37.8 °F 30.2 in ESE 4.4 mph 6.9 mph 55.3% 0 in
04:14 53.8 °F 37.6 °F 30.2 in ESE 4.7 mph 5.8 mph 54.2% 0 in
04:19 53.8 °F 37.6 °F 30.2 in NE 4.3 mph 4.7 mph 54.1% 0 in
04:24 53.2 °F 37.6 °F 30.2 in SO 3.1 mph 4.7 mph 55.3% 0 in
04:29 52.9 °F 37.6 °F 30.2 in SSE 3 mph 5.9 mph 56% 0 in
04:34 52.3 °F 37.6 °F 30.2 in SE 2.9 mph 5.2 mph 56.9% 0 in
04:39 52.2 °F 37.4 °F 30.2 in SSO 3 mph 7.4 mph 57% 0 in
04:44 52.3 °F 37.2 °F 30.2 in SO 3.1 mph 9.7 mph 56.3% 0 in
04:49 52.2 °F 37.2 °F 30.2 in NE 3.4 mph 6.9 mph 56.9% 0 in
04:54 51.6 °F 37.2 °F 30.2 in North 4.3 mph 5.9 mph 57.8% 0 in
04:59 51.4 °F 37.2 °F 30.2 in OSO 3.9 mph 5.2 mph 58% 0 in
05:04 51.6 °F 37.2 °F 30.2 in SE 2.9 mph 4.6 mph 58% 0 in
05:09 51.6 °F 37.2 °F 30.2 in ENE 2.9 mph 5.2 mph 57.9% 0 in
05:14 52.2 °F 37 °F 30.2 in North 2.9 mph 6.2 mph 56.4% 0 in
05:19 52.7 °F 36.9 °F 30.2 in NO 3.1 mph 11.5 mph 54.9% 0 in
05:24 53.4 °F 36.7 °F 30.2 in ONO 3.6 mph 9.2 mph 53.1% 0 in
05:29 53.4 °F 36.7 °F 30.2 in NO 3.6 mph 4.6 mph 53% 0 in
05:34 53.2 °F 36.5 °F 30.2 in ONO 3.6 mph 6.9 mph 53% 0 in
05:39 53.8 °F 36.5 °F 30.2 in ONO 3.7 mph 8.1 mph 52% 0 in
05:44 54 °F 36.1 °F 30.2 in NO 4 mph 4.6 mph 51% 0 in
05:49 54 °F 36.1 °F 30.2 in NO 3.7 mph 5.9 mph 51% 0 in
05:54 54 °F 36.3 °F 30.2 in NO 3.1 mph 9.2 mph 51% 0 in
05:59 54 °F 36.3 °F 30.2 in ONO 3.8 mph 8.5 mph 51% 0 in
06:04 54 °F 36.1 °F 30.2 in ONO 5.4 mph 13 mph 51% 0 in
06:09 53.6 °F 36 °F 30.2 in ONO 5.9 mph 14 mph 51.2% 0 in
06:14 53.4 °F 36 °F 30.2 in ONO 7.4 mph 15 mph 51.4% 0 in
06:19 53.2 °F 36 °F 30.2 in ONO 7.5 mph 11.5 mph 52% 0 in
06:24 53.1 °F 36 °F 30.2 in ONO 7.6 mph 17.5 mph 52.2% 0 in
06:29 53.2 °F 36.1 °F 30.2 in ONO 7.8 mph 14 mph 52% 0 in
06:34 53.2 °F 36.1 °F 30.2 in ONO 8.1 mph 13.8 mph 52% 0 in
06:39 53.2 °F 36.1 °F 30.2 in ONO 8.2 mph 12.3 mph 52% 0 in
06:44 53.1 °F 36 °F 30.2 in ONO 8.5 mph 14 mph 52% 0 in
06:49 53.2 °F 36.1 °F 30.2 in ONO 8.8 mph 19 mph 51.9% 0 in
06:54 53.8 °F 36 °F 30.2 in ONO 9.7 mph 20.8 mph 50.7% 0 in
06:59 54.3 °F 36 °F 30.2 in ONO 10.6 mph 17.5 mph 50% 0 in
07:04 54.1 °F 36 °F 30.2 in ONO 12.5 mph 19.6 mph 50% 0 in
07:09 54.1 °F 36 °F 30.2 in ONO 12.1 mph 17.3 mph 50% 0 in
07:14 54.3 °F 36.1 °F 30.2 in ONO 11.2 mph 13.8 mph 50% 0 in
07:19 54.1 °F 36 °F 30.2 in ONO 10.4 mph 15 mph 50% 0 in
07:24 54.1 °F 36 °F 30.2 in ONO 8.5 mph 12.7 mph 50% 0 in
07:29 54.1 °F 36 °F 30.2 in Oeste 8.1 mph 10.4 mph 50% 0 in
07:34 54 °F 35.8 °F 30.2 in OSO 6.9 mph 8.1 mph 50% 0 in
07:39 53.6 °F 35.6 °F 30.2 in Sur 6.3 mph 9.2 mph 50.4% 0 in
07:44 52.9 °F 35.4 °F 30.2 in ESE 4.7 mph 9.2 mph 51.5% 0 in
07:49 52.3 °F 35.6 °F 30.2 in SSE 4.5 mph 5.2 mph 52.8% 0 in
07:54 52 °F 35.6 °F 30.2 in Sur 4 mph 5.8 mph 53.5% 0 in
07:59 52 °F 35.8 °F 30.2 in SO 3.7 mph 5.9 mph 54% 0 in
08:04 52.2 °F 35.6 °F 30.2 in Sur 2.9 mph 5.8 mph 53.3% 0 in
08:09 52.2 °F 35.4 °F 30.2 in SSE 3 mph 5.8 mph 53% 0 in
08:14 52.2 °F 35.6 °F 30.2 in SSE 3.1 mph 5.2 mph 53.1% 0 in
08:19 52.2 °F 36 °F 30.2 in SE 3.2 mph 5.8 mph 53.9% 0 in
08:24 52.2 °F 35.8 °F 30.2 in SSE 3.6 mph 6.2 mph 53.7% 0 in
08:29 52 °F 35.8 °F 30.2 in SSE 3.6 mph 7.6 mph 54% 0 in
08:34 52.2 °F 36 °F 30.2 in SSE 3.6 mph 10.4 mph 54% 0 in
08:39 52.7 °F 36.1 °F 30.2 in SSE 3.9 mph 8.1 mph 53.1% 0 in
08:44 53.2 °F 36.1 °F 30.2 in Sur 4.7 mph 5.2 mph 52.1% 0 in
08:49 53.2 °F 36.1 °F 30.2 in SSE 4.3 mph 8.1 mph 52% 0 in
08:54 53.2 °F 36.1 °F 30.2 in Sur 3.1 mph 10 mph 52% 0 in
08:59 53.2 °F 36.1 °F 30.2 in SSO 3.7 mph 10.4 mph 52% 0 in
09:04 53.2 °F 36.1 °F 30.2 in SSO 5.2 mph 6.9 mph 52% 0 in
09:09 53.2 °F 36.1 °F 30.2 in ONO 4.8 mph 4.7 mph 52% 0 in
09:14 53.2 °F 36.5 °F 30.2 in NO 3.6 mph 4.6 mph 52.9% 0 in
09:19 53.8 °F 36.5 °F 30.2 in OSO 3.2 mph 4.6 mph 52% 0 in
09:24 54.1 °F 36.5 °F 30.2 in Sur 2 mph 5.9 mph 51.2% 0 in
09:29 54.7 °F 36.7 °F 30.2 in SSO 2.4 mph 7.4 mph 50.6% 0 in
09:34 55 °F 36.7 °F 30.2 in ONO 3.6 mph 6.9 mph 49.9% 0 in
09:39 55 °F 36.5 °F 30.2 in SSO 3.7 mph 6.9 mph 49.5% 0 in
09:44 55.6 °F 36.7 °F 30.2 in Sur 4 mph 5.8 mph 49% 0 in
09:49 55.8 °F 36.7 °F 30.2 in NO 3.9 mph 5.2 mph 48.7% 0 in
09:54 55.9 °F 36.7 °F 30.2 in ONO 3.6 mph 9.2 mph 48.6% 0 in
09:59 55.9 °F 36.5 °F 30.2 in SO 3.9 mph 5.8 mph 48% 0 in
10:04 56.3 °F 36.7 °F 30.2 in SSO 4.3 mph 8.7 mph 47.7% 0 in
10:09 56.7 °F 36.3 °F 30.2 in OSO 4.2 mph 9.2 mph 46.3% 0 in
10:14 57.2 °F 36.5 °F 30.2 in SO 4 mph 8.5 mph 46% 0 in
10:19 57.6 °F 36.5 °F 30.2 in Oeste 4.3 mph 11.5 mph 45.1% 0 in
10:24 57.6 °F 36.7 °F 30.2 in Oeste 5.2 mph 10.4 mph 45.7% 0 in
10:29 57.6 °F 36.7 °F 30.2 in OSO 5.3 mph 10.4 mph 45.5% 0 in
10:34 57.7 °F 36.5 °F 30.2 in OSO 5.4 mph 15.2 mph 45% 0 in
10:39 57.9 °F 36.7 °F 30.2 in Oeste 5.7 mph 11.5 mph 45% 0 in
10:44 58.3 °F 37 °F 30.2 in Oeste 6.4 mph 11.5 mph 45% 0 in
10:49 58.5 °F 37 °F 30.2 in ONO 6.3 mph 16.1 mph 44.5% 0 in
10:54 58.6 °F 36.7 °F 30.2 in ONO 6.2 mph 19 mph 43.6% 0 in
10:59 59 °F 36.7 °F 30.2 in ONO 8.2 mph 20.8 mph 43.3% 0 in
11:04 59.2 °F 36.7 °F 30.2 in ONO 12.5 mph 23.5 mph 43% 0 in
11:09 59.4 °F 36.5 °F 30.2 in ONO 12.9 mph 23.5 mph 42.6% 0 in
11:14 59.4 °F 36.3 °F 30.2 in ONO 14 mph 25.6 mph 42.2% 0 in
11:19 59.5 °F 36.7 °F 30.2 in ONO 14.1 mph 21.3 mph 42.4% 0 in
11:24 59.5 °F 36.3 °F 30.2 in ONO 14.5 mph 22.3 mph 42% 0 in
11:29 59.7 °F 36.5 °F 30.2 in ONO 14.2 mph 22.5 mph 42% 0 in
11:34 59.7 °F 36.7 °F 30.2 in ONO 13.5 mph 23 mph 42% 0 in
11:39 60.1 °F 36.5 °F 30.2 in ONO 13.2 mph 19.6 mph 41.5% 0 in
11:44 60.3 °F 36.3 °F 30.2 in ONO 12.5 mph 20.7 mph 41% 0 in
11:49 60.3 °F 36.5 °F 30.2 in ONO 12.4 mph 20.8 mph 41.1% 0 in
11:54 60.3 °F 36.9 °F 30.2 in ONO 12.3 mph 18.4 mph 41.9% 0 in
11:59 60.4 °F 36.9 °F 30.2 in NO 11.6 mph 17.3 mph 41.6% 0 in
12:04 60.4 °F 36.7 °F 30.2 in ONO 10.2 mph 18.5 mph 41% 0 in
12:09 60.6 °F 36.9 °F 30.2 in ONO 10.5 mph 19.6 mph 41% 0 in
12:14 61 °F 36.7 °F 30.2 in ONO 11.4 mph 19.6 mph 40.3% 0 in
12:19 61.2 °F 36.7 °F 30.2 in ONO 11.4 mph 18.4 mph 40.3% 0 in
12:24 61.3 °F 36.7 °F 30.2 in ONO 11.2 mph 18.4 mph 40% 0 in
12:29 61.5 °F 36.7 °F 30.2 in ONO 11.1 mph 14 mph 39.5% 0 in
12:34 61.9 °F 36.9 °F 30.2 in Oeste 10.7 mph 13.8 mph 39.2% 0 in
12:39 62.2 °F 37 °F 30.2 in OSO 9.6 mph 17.5 mph 39% 0 in
12:44 62.4 °F 36.9 °F 30.2 in OSO 6.4 mph 23 mph 38.6% 0 in
12:49 62.2 °F 36.9 °F 30.2 in Oeste 7.6 mph 15 mph 38.9% 0 in
12:54 62.2 °F 37 °F 30.2 in Oeste 10.7 mph 19 mph 39% 0 in
12:59 62.4 °F 37.2 °F 30.2 in OSO 10.1 mph 18.4 mph 39% 0 in
13:04 62.6 °F 37.4 °F 30.2 in Oeste 8.7 mph 19.7 mph 39% 0 in
13:09 62.8 °F 37.4 °F 30.2 in Oeste 9.1 mph 18.5 mph 39% 0 in
13:14 62.8 °F 37.4 °F 30.2 in OSO 10 mph 17.3 mph 39% 0 in
13:19 63 °F 37.2 °F 30.2 in OSO 10 mph 18.1 mph 38.7% 0 in
13:24 63.1 °F 37 °F 30.2 in OSO 10 mph 20.7 mph 38% 0 in
13:29 63.1 °F 37 °F 30.2 in OSO 10.3 mph 21.5 mph 38% 0 in
13:34 63.1 °F 37 °F 30.2 in OSO 11.2 mph 24.6 mph 38% 0 in
13:39 63.1 °F 37.2 °F 30.2 in OSO 11.2 mph 17.3 mph 38% 0 in
13:44 63.5 °F 37.2 °F 30.2 in OSO 11.4 mph 18.5 mph 37.9% 0 in
13:49 63.9 °F 37 °F 30.2 in Oeste 11.1 mph 20.8 mph 37.1% 0 in
13:54 63.9 °F 37 °F 30.2 in Oeste 10.2 mph 21.3 mph 37% 0 in
13:59 63.9 °F 37 °F 30.2 in Oeste 10.2 mph 18.4 mph 37% 0 in
14:04 64.2 °F 37.4 °F 30.2 in OSO 10.2 mph 12.7 mph 37% 0 in
14:09 64.2 °F 36.9 °F 30.2 in OSO 9.7 mph 16.8 mph 36.3% 0 in
14:14 64.4 °F 36.9 °F 30.2 in OSO 8.5 mph 17.3 mph 36% 0 in
14:19 64.8 °F 37 °F 30.2 in Oeste 8.7 mph 16.8 mph 36% 0 in
14:24 64.6 °F 36.9 °F 30.2 in ONO 9.2 mph 17.3 mph 35.8% 0 in
14:29 64.6 °F 37 °F 30.2 in OSO 9.4 mph 13.8 mph 36% 0 in
14:34 64.8 °F 37.2 °F 30.2 in OSO 10 mph 13.8 mph 36% 0 in
14:39 64.9 °F 36.9 °F 30.2 in OSO 9.3 mph 14.5 mph 35.3% 0 in
14:44 65.1 °F 36.9 °F 30.2 in OSO 7.4 mph 15.9 mph 35% 0 in
14:49 65.1 °F 36.5 °F 30.2 in Oeste 7.9 mph 16.3 mph 34.5% 0 in
14:54 65.1 °F 36.7 °F 30.2 in OSO 9.2 mph 16.1 mph 34.8% 0 in
14:59 65.3 °F 36.3 °F 30.2 in OSO 8.9 mph 17.3 mph 34% 0 in
15:04 65.5 °F 36.3 °F 30.2 in OSO 8.5 mph 17.3 mph 34% 0 in
15:09 65.5 °F 36.5 °F 30.2 in OSO 8.7 mph 13.8 mph 34% 0 in
15:14 65.7 °F 36.5 °F 30.2 in OSO 9.2 mph 17.5 mph 34% 0 in
15:19 65.5 °F 36.5 °F 30.2 in OSO 9.1 mph 17.3 mph 34% 0 in
15:24 65.7 °F 36.5 °F 30.2 in OSO 8.7 mph 17.3 mph 34% 0 in
15:29 65.8 °F 36.7 °F 30.2 in Oeste 8.5 mph 12.7 mph 34% 0 in
15:34 65.8 °F 36.3 °F 30.2 in Oeste 8.1 mph 17.3 mph 33.5% 0 in
15:39 65.7 °F 36.5 °F 30.2 in Oeste 8.2 mph 15 mph 34% 0 in
15:44 65.7 °F 36.5 °F 30.2 in Oeste 8.5 mph 15.2 mph 33.9% 0 in
15:49 65.7 °F 36 °F 30.2 in OSO 8.4 mph 14.5 mph 33.3% 0 in
15:54 65.8 °F 36 °F 30.2 in OSO 8.1 mph 15 mph 33.1% 0 in
15:59 65.8 °F 36.1 °F 30.2 in Oeste 8.2 mph 13.8 mph 33.4% 0 in
16:04 65.7 °F 36.5 °F 30.2 in Oeste 8.5 mph 11.5 mph 33.9% 0 in
16:09 65.8 °F 36 °F 30.2 in OSO 7.9 mph 14.5 mph 33% 0 in
16:14 65.7 °F 35.8 °F 30.2 in Oeste 6.2 mph 15 mph 33% 0 in
16:19 65.7 °F 35.8 °F 30.2 in Oeste 6.7 mph 13 mph 33% 0 in
16:24 65.7 °F 35.8 °F 30.2 in Oeste 8.1 mph 10.4 mph 33% 0 in
16:29 65.7 °F 35.8 °F 30.2 in Oeste 7.6 mph 11.5 mph 33% 0 in
16:34 65.7 °F 35.8 °F 30.2 in Oeste 6.4 mph 12.7 mph 33% 0 in
16:39 65.7 °F 35.8 °F 30.2 in Oeste 6 mph 6.9 mph 33% 0 in
16:44 65.8 °F 36 °F 30.2 in OSO 4.7 mph 6.9 mph 33% 0 in
16:49 65.8 °F 36 °F 30.2 in SO 4.6 mph 11.5 mph 33% 0 in
16:54 65.8 °F 36 °F 30.2 in OSO 4.3 mph 9.7 mph 33% 0 in
16:59 65.7 °F 35.8 °F 30.2 in OSO 4.8 mph 8.5 mph 33% 0 in
17:04 65.7 °F 35.8 °F 30.2 in OSO 5.9 mph 10.4 mph 33% 0 in
17:09 65.7 °F 35.8 °F 30.2 in OSO 5.7 mph 8.1 mph 33% 0 in
17:14 65.7 °F 35.8 °F 30.2 in Oeste 5.2 mph 8.1 mph 33.2% 0 in
17:19 65.5 °F 36.3 °F 30.2 in Oeste 4.9 mph 6.9 mph 33.9% 0 in
17:24 65.1 °F 36 °F 30.2 in Oeste 4 mph 9.2 mph 34% 0 in
17:29 64.9 °F 36 °F 30.2 in Oeste 4.2 mph 9.2 mph 34% 0 in
17:34 64.8 °F 35.8 °F 30.2 in Oeste 4.7 mph 5.8 mph 34.2% 0 in
17:39 64.8 °F 36.3 °F 30.2 in OSO 4 mph 5.2 mph 34.8% 0 in
17:44 64.8 °F 36.3 °F 30.2 in NO 2.4 mph 4.6 mph 35% 0 in
17:49 64.4 °F 36.1 °F 30.2 in ONO 2.4 mph 5.2 mph 35% 0 in
17:54 64.2 °F 36 °F 30.2 in ONO 2.4 mph 6.4 mph 35% 0 in
17:59 64 °F 36.1 °F 30.2 in ONO 2.8 mph 6.9 mph 35.4% 0 in
18:04 63.7 °F 36.1 °F 30.2 in Oeste 3.6 mph 6.2 mph 36% 0 in
18:09 63.3 °F 36 °F 30.2 in Oeste 3.8 mph 6.9 mph 36% 0 in
18:14 63.1 °F 35.8 °F 30.2 in OSO 4.3 mph 5.9 mph 36% 0 in
18:19 63.1 °F 35.8 °F 30.2 in SO 4 mph 6.9 mph 36% 0 in
18:24 63.1 °F 35.8 °F 30.2 in Sur 3.1 mph 6.2 mph 36% 0 in
18:29 63.1 °F 35.8 °F 30.2 in SSE 3.4 mph 6.9 mph 36% 0 in
18:34 63.1 °F 35.8 °F 30.2 in Sur 4 mph 8.1 mph 36% 0 in
18:39 63.1 °F 35.8 °F 30.2 in Sur 4.1 mph 8.1 mph 36% 0 in
18:44 63.3 °F 35.8 °F 30.2 in SO 4.3 mph 9.2 mph 35.9% 0 in
18:49 63.3 °F 35.2 °F 30.2 in SSO 4.1 mph 4.6 mph 35% 0 in
18:54 63.3 °F 35.2 °F 30.2 in Oeste 3.6 mph 9.2 mph 35% 0 in
18:59 63.3 °F 35.2 °F 30.2 in ONO 3.6 mph 8.1 mph 35% 0 in
19:04 63.1 °F 35.1 °F 30.2 in OSO 3.6 mph 9.2 mph 35% 0 in
19:09 63.1 °F 34.9 °F 30.2 in Oeste 3.8 mph 9.2 mph 35% 0 in
19:14 63 °F 34.9 °F 30.2 in OSO 4.3 mph 13.8 mph 35% 0 in
19:19 63 °F 34.9 °F 30.2 in OSO 4.5 mph 9.2 mph 35% 0 in
19:24 63 °F 34.9 °F 30.2 in OSO 5.2 mph 9.2 mph 35% 0 in
19:29 63 °F 34.9 °F 30.2 in OSO 5 mph 8.1 mph 35% 0 in
19:34 63 °F 34.9 °F 30.2 in OSO 4.3 mph 14 mph 35% 0 in
19:39 62.8 °F 34.7 °F 30.2 in SO 4.5 mph 10.2 mph 35% 0 in
19:44 62.8 °F 34.7 °F 30.2 in OSO 5.2 mph 16.1 mph 35% 0 in
19:49 63 °F 34.9 °F 30.2 in Oeste 6.3 mph 15 mph 35% 0 in
19:54 62.8 °F 34.9 °F 30.2 in ONO 9.2 mph 17.5 mph 35.3% 0 in
19:59 62.4 °F 35.2 °F 30.2 in Oeste 9 mph 17.5 mph 36% 0 in
20:04 62.4 °F 35.1 °F 30.2 in Oeste 8.7 mph 17.5 mph 36% 0 in
20:09 62.2 °F 34.9 °F 30.2 in Oeste 8.5 mph 12.7 mph 36% 0 in
20:14 62.1 °F 35.2 °F 30.2 in SSO 8.1 mph 9.2 mph 36.7% 0 in
20:19 61.7 °F 35.2 °F 30.2 in SSE 7 mph 7.4 mph 37% 0 in
20:24 61.2 °F 35.2 °F 30.2 in Sur 4 mph 6.9 mph 37.7% 0 in
20:29 60.4 °F 35.1 °F 30.2 in Sur 4.2 mph 15.2 mph 38.7% 0 in
20:34 59.7 °F 34.7 °F 30.2 in Sur 4.7 mph 15 mph 39% 0 in
20:39 59.7 °F 34.7 °F 30.2 in SSO 5.4 mph 9.2 mph 39% 0 in
20:44 59.7 °F 34.7 °F 30.2 in SSO 7.4 mph 8.1 mph 39% 0 in
20:49 59.7 °F 34.7 °F 30.2 in OSO 6.8 mph 8.1 mph 39% 0 in
20:54 59.4 °F 34.9 °F 30.2 in OSO 5.2 mph 7.4 mph 39.8% 0 in
20:59 58.8 °F 34.5 °F 30.2 in SO 5 mph 8.1 mph 40% 0 in
21:04 58.8 °F 34.5 °F 30.2 in SO 4.7 mph 8.1 mph 40% 0 in
21:09 58.8 °F 34.5 °F 30.2 in SO 4.8 mph 8.1 mph 40% 0 in
21:14 58.8 °F 34.5 °F 30.2 in SO 5.2 mph 8.1 mph 40% 0 in
21:19 58.6 °F 34.5 °F 30.2 in OSO 5.2 mph 7.4 mph 40% 0 in
21:24 58.6 °F 34.3 °F 30.2 in OSO 5.2 mph 6.9 mph 40.1% 0 in
21:29 58.3 °F 34.7 °F 30.2 in OSO 5 mph 8.1 mph 41% 0 in
21:34 57.9 °F 34.5 °F 30.2 in OSO 4.3 mph 6.9 mph 41.4% 0 in
21:39 57.7 °F 34.7 °F 30.2 in OSO 4.2 mph 5.8 mph 42% 0 in
21:44 57.6 °F 34.5 °F 30.2 in Oeste 4 mph 4.6 mph 42% 0 in
21:49 57.6 °F 34.5 °F 30.2 in SSO 3.6 mph 4.6 mph 42% 0 in
Murcia-Puente Tocinos, Espa?a
Compliments of Weather Underground - 3 mb

La estación de MeteoMurcia.com, publica sus datos en los siguientes proyectos:

Weather Underground PWS IMURCIAP2 Meteoclimatic www.awekas.at

W3Counter
Web Analytics